Flight Track Log - Related Links

Times and Time Zones

All times are in EDT time to prevent confusion due to time zone crossing. See the CLH313 flight status page for this flight to view local times or setup timezone preferences in your user account.

Time Position Orientation Groundspeed Altitude Reporting Facility
EDT Latitude Longitude Course Direction KTS MPH feet Rate Location/Type
Tue 09:08:00 AM 44.3609 10.9936 345° North  Level Estimated
Tue 09:09:00 AM 44.4527 10.9580 345° North  Level Estimated
Tue 09:10:00 AM 44.5445 10.9223 344° North  Level Estimated
Tue 09:11:00 AM 44.6362 10.8864 344° North  Level Estimated
Tue 09:12:00 AM 44.7280 10.8504 344° North  Level Estimated
Tue 09:13:00 AM 44.8197 10.8144 344° North  Level Estimated
Tue 09:14:00 AM 44.9114 10.7781 344° North  Level Estimated
Tue 09:15:00 AM 45.0032 10.7418 344° North  Level Estimated
Tue 09:16:00 AM 45.0949 10.7054 344° North  Level Estimated
Tue 09:17:00 AM 45.1866 10.6689 344° North  Level Estimated
Tue 09:18:00 AM 45.2783 10.6322 344° North  Level Estimated
Tue 09:19:00 AM 45.3699 10.5954 344° North  Level Estimated
Tue 09:20:00 AM 45.4616 10.5585 344° North  Level Estimated
Tue 09:21:00 AM 45.5532 10.5215 344° North  Level Estimated
Tue 09:22:00 AM 45.6449 10.4843 344° North  Level Estimated
Tue 09:23:00 AM 45.7365 10.4471 344° North  Level Estimated
Tue 09:24:00 AM 45.8281 10.4097 344° North  Level Estimated
Tue 09:25:00 AM 45.9197 10.3722 344° North  Level Estimated
Tue 09:26:00 AM 46.0113 10.3345 344° North  Level Estimated
Tue 09:27:00 AM 46.1029 10.2968 344° North  Level Estimated
Tue 09:28:00 AM 46.1944 10.2589 344° North  Level Estimated
Tue 09:29:00 AM 46.2860 10.2209 344° North  Level Estimated
Tue 09:30:00 AM 46.3775 10.1827 344° North  Level Estimated
Tue 09:31:00 AM 46.4691 10.1445 344° North  Level Estimated
Tue 09:32:00 AM 46.5606 10.1060 344° North  Level Estimated
Tue 09:33:00 AM 46.6521 10.0675 344° North  Level Estimated
Tue 09:34:00 AM 46.7435 10.0289 344° North  Level Estimated
Tue 09:35:00 AM 46.8350 9.9901 344° North  Level Estimated
Tue 09:36:00 AM 46.9265 9.9511 344° North  Level Estimated
Tue 09:37:00 AM 47.0179 9.9121 344° North  Level Estimated
Tue 09:38:00 AM 47.1094 9.8729 344° North  Level Estimated
Tue 09:39:00 AM 47.2008 9.8336 344° North  Level Estimated
Tue 09:40:00 AM 47.2922 9.7941 344° North  Level Estimated
Tue 09:41:00 AM 47.3836 9.7545 344° North  Level Estimated
Tue 09:42:00 AM 47.4749 9.7148 344° North  Level Estimated
Tue 09:43:00 AM 47.5663 9.6749 344° North  Level Estimated
Tue 09:44:00 AM 47.6577 9.6349 344° North  Level Estimated
Tue 09:45:00 AM 47.7490 9.5948 344° North  Level Estimated
Tue 09:46:00 AM 47.8403 9.5545 344° North  Level Estimated
Tue 09:47:00 AM 47.9316 9.5140 343° North  Level Estimated
Tue 09:48:00 AM 48.0229 9.4734 343° North  Level Estimated
Tue 09:49:00 AM 48.1142 9.4327 343° North  Level Estimated
Tue 09:50:00 AM 48.2055 9.3919 343° North  Level Estimated
Tue 09:51:00 AM 48.2967 9.3509 343° North  Level Estimated
Tue 09:52:00 AM 48.3880 9.3097 343° North  Level Estimated
Tue 09:53:00 AM 48.4792 9.2684 343° North  Level Estimated
Tue 09:54:00 AM 48.5704 9.2269 343° North  Level Estimated
Tue 09:55:00 AM 48.6616 9.1853 343° North  Level Estimated
Tue 09:56:00 AM 48.7528 9.1436 343° North  Level Estimated
Tue 09:57:00 AM 48.8439 9.1017 343° North  Level Estimated
Tue 09:58:00 AM 48.9351 9.0596 343° North  Level Estimated
Tue 09:59:00 AM 49.0262 9.0174 343° North  Level Estimated
Tue 10:00:00 AM 49.1173 8.9750 343° North  Level Estimated
Tue 10:01:00 AM 49.2084 8.9325 343° North  Level Estimated
Tue 10:02:00 AM 49.2995 8.8898 343° North  Level Estimated
Tue 10:03:00 AM 49.3906 8.8469 343° North  Level Estimated
Tue 10:04:00 AM 49.4816 8.8040 343° North  Level Estimated
Tue 10:05:00 AM 49.5727 8.7608 343° North  Level Estimated
Tue 10:06:00 AM 49.6637 8.7175 343° North  Level Estimated
Tue 10:07:00 AM 49.7547 8.6740 343° North  Level Estimated
Tue 10:08:00 AM 49.8457 8.6303 343° North  Level Estimated
Tue 10:09:00 AM 49.9367 8.5865 343° North  Level Estimated
Tue 10:10:00 AM 50.0264 8.5431 343° North  Level Estimated
Tue 10:11:00 AM 50.0264 8.5431 North  Level Estimated
Tue 10:12:00 AM 50.0264 8.5431 North  Level Estimated
Tue 10:13:00 AM 50.0264 8.5431 North  Level Estimated
Tue 10:14:00 AM 50.0264 8.5431 North  Level Estimated
Tue 10:15:00 AM 50.0264 8.5431 North  Level Estimated
Tue 10:16:00 AM 50.0264 8.5431 North  Level Estimated
Tue 10:17:00 AM 50.0264 8.5431 North  Level Estimated
Tue 10:18:00 AM 50.0264 8.5431 North  Level Estimated
Tue 10:19:00 AM 50.0264 8.5431 North  Level Estimated
Tue 10:20:00 AM 50.0264 8.5431 North  Level Estimated
Tue 10:21:00 AM 50.0264 8.5431 North  Level Estimated
Tue 10:22:00 AM 50.0264 8.5431 North  Level Estimated
Tue 10:23:00 AM 50.0264 8.5431 North  Level Estimated
Tue 10:24:00 AM 50.0264 8.5431 North  Level Estimated
Tue 10:25:00 AM 50.0264 8.5431 North  Level Estimated
Tue 10:26:00 AM 50.0264 8.5431 North  Level Estimated

Login

Don't have an account? Register now (free) for customized features, flight alerts, and more!